sensor_id;sensor_type;location;lat;lon;timestamp;P1;durP1;ratioP1;P2;durP2;ratioP2
4808;SDS011;2418;49.930;8.606;2022-07-15T00:00:20;5.30;;;1.60;;
4808;SDS011;2418;49.930;8.606;2022-07-15T00:02:46;2.80;;;1.55;;
4808;SDS011;2418;49.930;8.606;2022-07-15T00:05:12;1.70;;;1.60;;
4808;SDS011;2418;49.930;8.606;2022-07-15T00:07:38;4.32;;;2.00;;
4808;SDS011;2418;49.930;8.606;2022-07-15T00:10:04;6.50;;;1.77;;
4808;SDS011;2418;49.930;8.606;2022-07-15T00:12:43;2.25;;;1.60;;
4808;SDS011;2418;49.930;8.606;2022-07-15T00:15:10;2.95;;;1.77;;
4808;SDS011;2418;49.930;8.606;2022-07-15T00:17:36;2.03;;;1.67;;
4808;SDS011;2418;49.930;8.606;2022-07-15T00:20:02;1.50;;;1.40;;
4808;SDS011;2418;49.930;8.606;2022-07-15T00:22:28;3.58;;;1.33;;
4808;SDS011;2418;49.930;8.606;2022-07-15T00:24:54;3.30;;;1.80;;
4808;SDS011;2418;49.930;8.606;2022-07-15T00:27:20;2.10;;;1.60;;
4808;SDS011;2418;49.930;8.606;2022-07-15T00:29:46;3.38;;;1.73;;
4808;SDS011;2418;49.930;8.606;2022-07-15T00:32:12;1.57;;;1.47;;
4808;SDS011;2418;49.930;8.606;2022-07-15T00:34:38;3.10;;;1.70;;
4808;SDS011;2418;49.930;8.606;2022-07-15T00:37:04;2.90;;;1.65;;
4808;SDS011;2418;49.930;8.606;2022-07-15T00:39:30;3.65;;;1.90;;
4808;SDS011;2418;49.930;8.606;2022-07-15T00:41:56;3.60;;;1.37;;
4808;SDS011;2418;49.930;8.606;2022-07-15T00:44:23;2.78;;;1.63;;
4808;SDS011;2418;49.930;8.606;2022-07-15T00:46:48;4.30;;;1.57;;
4808;SDS011;2418;49.930;8.606;2022-07-15T00:49:14;1.70;;;1.60;;
4808;SDS011;2418;49.930;8.606;2022-07-15T00:51:42;3.30;;;1.80;;
4808;SDS011;2418;49.930;8.606;2022-07-15T00:54:14;4.97;;;1.40;;
4808;SDS011;2418;49.930;8.606;2022-07-15T00:56:46;6.47;;;2.00;;
4808;SDS011;2418;49.930;8.606;2022-07-15T00:59:13;2.60;;;1.90;;
4808;SDS011;2418;49.930;8.606;2022-07-15T01:01:39;2.50;;;1.70;;
4808;SDS011;2418;49.930;8.606;2022-07-15T01:04:06;2.50;;;2.10;;
4808;SDS011;2418;49.930;8.606;2022-07-15T01:06:32;1.97;;;1.70;;
4808;SDS011;2418;49.930;8.606;2022-07-15T01:08:58;2.10;;;1.90;;
4808;SDS011;2418;49.930;8.606;2022-07-15T01:11:25;2.47;;;2.28;;
4808;SDS011;2418;49.930;8.606;2022-07-15T01:13:51;3.17;;;1.90;;
4808;SDS011;2418;49.930;8.606;2022-07-15T01:16:17;4.40;;;2.35;;
4808;SDS011;2418;49.930;8.606;2022-07-15T01:18:43;7.87;;;2.50;;
4808;SDS011;2418;49.930;8.606;2022-07-15T01:21:09;7.45;;;2.03;;
4808;SDS011;2418;49.930;8.606;2022-07-15T01:23:35;5.20;;;1.70;;
4808;SDS011;2418;49.930;8.606;2022-07-15T01:26:05;9.40;;;2.42;;
4808;SDS011;2418;49.930;8.606;2022-07-15T01:28:31;3.30;;;1.80;;
4808;SDS011;2418;49.930;8.606;2022-07-15T01:30:57;5.70;;;2.30;;
4808;SDS011;2418;49.930;8.606;2022-07-15T01:33:23;3.13;;;2.10;;
4808;SDS011;2418;49.930;8.606;2022-07-15T01:35:49;2.72;;;2.00;;
4808;SDS011;2418;49.930;8.606;2022-07-15T01:38:15;6.43;;;2.13;;
4808;SDS011;2418;49.930;8.606;2022-07-15T01:40:41;3.00;;;2.10;;
4808;SDS011;2418;49.930;8.606;2022-07-15T01:43:07;2.63;;;2.00;;
4808;SDS011;2418;49.930;8.606;2022-07-15T01:45:33;3.60;;;2.10;;
4808;SDS011;2418;49.930;8.606;2022-07-15T01:47:59;4.40;;;2.00;;
4808;SDS011;2418;49.930;8.606;2022-07-15T01:50:25;3.60;;;2.20;;
4808;SDS011;2418;49.930;8.606;2022-07-15T01:52:51;2.90;;;2.10;;
4808;SDS011;2418;49.930;8.606;2022-07-15T01:55:17;2.50;;;1.85;;
4808;SDS011;2418;49.930;8.606;2022-07-15T01:57:43;6.70;;;2.08;;
4808;SDS011;2418;49.930;8.606;2022-07-15T02:00:09;3.03;;;2.15;;
4808;SDS011;2418;49.930;8.606;2022-07-15T02:02:37;2.20;;;2.00;;
4808;SDS011;2418;49.930;8.606;2022-07-15T02:05:03;5.53;;;1.90;;
4808;SDS011;2418;49.930;8.606;2022-07-15T02:07:29;5.30;;;2.40;;
4808;SDS011;2418;49.930;8.606;2022-07-15T02:09:55;5.20;;;2.00;;
4808;SDS011;2418;49.930;8.606;2022-07-15T02:12:21;5.30;;;2.20;;
4808;SDS011;2418;49.930;8.606;2022-07-15T02:14:47;5.30;;;1.90;;
4808;SDS011;2418;49.930;8.606;2022-07-15T02:17:14;5.30;;;2.20;;
4808;SDS011;2418;49.930;8.606;2022-07-15T02:19:40;5.60;;;2.40;;
4808;SDS011;2418;49.930;8.606;2022-07-15T02:22:06;6.40;;;1.87;;
4808;SDS011;2418;49.930;8.606;2022-07-15T02:24:32;5.53;;;3.03;;
4808;SDS011;2418;49.930;8.606;2022-07-15T02:26:58;2.58;;;2.38;;
4808;SDS011;2418;49.930;8.606;2022-07-15T02:29:24;2.30;;;2.10;;
4808;SDS011;2418;49.930;8.606;2022-07-15T02:31:50;3.40;;;1.92;;
4808;SDS011;2418;49.930;8.606;2022-07-15T02:34:16;2.53;;;2.33;;
4808;SDS011;2418;49.930;8.606;2022-07-15T02:36:42;5.43;;;2.30;;
4808;SDS011;2418;49.930;8.606;2022-07-15T02:39:08;2.80;;;2.60;;
4808;SDS011;2418;49.930;8.606;2022-07-15T02:41:34;3.00;;;1.98;;
4808;SDS011;2418;49.930;8.606;2022-07-15T02:44:00;2.22;;;2.03;;
4808;SDS011;2418;49.930;8.606;2022-07-15T02:46:27;5.10;;;2.33;;
4808;SDS011;2418;49.930;8.606;2022-07-15T02:48:53;5.82;;;2.17;;
4808;SDS011;2418;49.930;8.606;2022-07-15T02:51:19;2.60;;;2.40;;
4808;SDS011;2418;49.930;8.606;2022-07-15T02:53:45;2.67;;;2.47;;
4808;SDS011;2418;49.930;8.606;2022-07-15T02:56:11;2.92;;;2.63;;
4808;SDS011;2418;49.930;8.606;2022-07-15T02:58:37;3.08;;;2.30;;
4808;SDS011;2418;49.930;8.606;2022-07-15T03:01:03;5.63;;;2.67;;
4808;SDS011;2418;49.930;8.606;2022-07-15T03:03:29;4.17;;;2.30;;
4808;SDS011;2418;49.930;8.606;2022-07-15T03:05:56;2.88;;;2.78;;
4808;SDS011;2418;49.930;8.606;2022-07-15T03:08:22;3.80;;;3.10;;
4808;SDS011;2418;49.930;8.606;2022-07-15T03:10:48;3.83;;;2.63;;
4808;SDS011;2418;49.930;8.606;2022-07-15T03:13:14;3.15;;;2.85;;
4808;SDS011;2418;49.930;8.606;2022-07-15T03:15:40;4.25;;;2.65;;
4808;SDS011;2418;49.930;8.606;2022-07-15T03:18:06;3.20;;;2.85;;
4808;SDS011;2418;49.930;8.606;2022-07-15T03:20:33;4.67;;;2.70;;
4808;SDS011;2418;49.930;8.606;2022-07-15T03:22:59;3.03;;;2.92;;
4808;SDS011;2418;49.930;8.606;2022-07-15T03:25:25;6.38;;;3.30;;
4808;SDS011;2418;49.930;8.606;2022-07-15T03:27:51;3.10;;;2.45;;
4808;SDS011;2418;49.930;8.606;2022-07-15T03:30:17;4.50;;;2.73;;
4808;SDS011;2418;49.930;8.606;2022-07-15T03:32:43;11.38;;;3.05;;
4808;SDS011;2418;49.930;8.606;2022-07-15T03:35:09;3.03;;;2.80;;
4808;SDS011;2418;49.930;8.606;2022-07-15T03:37:35;3.10;;;2.70;;
4808;SDS011;2418;49.930;8.606;2022-07-15T03:40:01;3.10;;;2.90;;
4808;SDS011;2418;49.930;8.606;2022-07-15T03:42:27;3.15;;;2.85;;
4808;SDS011;2418;49.930;8.606;2022-07-15T03:44:53;2.77;;;2.57;;
4808;SDS011;2418;49.930;8.606;2022-07-15T03:47:19;3.63;;;3.00;;
4808;SDS011;2418;49.930;8.606;2022-07-15T03:49:46;2.90;;;2.70;;
4808;SDS011;2418;49.930;8.606;2022-07-15T03:52:12;2.65;;;2.55;;
4808;SDS011;2418;49.930;8.606;2022-07-15T03:54:38;3.43;;;3.13;;
4808;SDS011;2418;49.930;8.606;2022-07-15T03:57:04;3.25;;;3.13;;
4808;SDS011;2418;49.930;8.606;2022-07-15T03:59:30;5.70;;;2.65;;
4808;SDS011;2418;49.930;8.606;2022-07-15T04:01:56;3.00;;;2.60;;
4808;SDS011;2418;49.930;8.606;2022-07-15T04:04:22;2.63;;;2.33;;
4808;SDS011;2418;49.930;8.606;2022-07-15T04:06:48;8.48;;;2.95;;
4808;SDS011;2418;49.930;8.606;2022-07-15T04:09:14;3.05;;;2.72;;
4808;SDS011;2418;49.930;8.606;2022-07-15T04:11:40;2.78;;;2.58;;
4808;SDS011;2418;49.930;8.606;2022-07-15T04:14:08;2.72;;;2.63;;
4808;SDS011;2418;49.930;8.606;2022-07-15T04:16:36;4.43;;;2.22;;
4808;SDS011;2418;49.930;8.606;2022-07-15T04:19:02;4.78;;;2.28;;
4808;SDS011;2418;49.930;8.606;2022-07-15T04:21:29;5.60;;;2.80;;
4808;SDS011;2418;49.930;8.606;2022-07-15T04:23:56;6.25;;;2.60;;
4808;SDS011;2418;49.930;8.606;2022-07-15T04:26:22;6.25;;;2.90;;
4808;SDS011;2418;49.930;8.606;2022-07-15T04:28:48;2.40;;;2.20;;
4808;SDS011;2418;49.930;8.606;2022-07-15T04:31:14;3.90;;;2.08;;
4808;SDS011;2418;49.930;8.606;2022-07-15T04:33:40;2.80;;;2.17;;
4808;SDS011;2418;49.930;8.606;2022-07-15T04:36:06;2.50;;;2.40;;
4808;SDS011;2418;49.930;8.606;2022-07-15T04:38:32;3.60;;;2.00;;
4808;SDS011;2418;49.930;8.606;2022-07-15T04:40:58;7.57;;;2.60;;
4808;SDS011;2418;49.930;8.606;2022-07-15T04:43:24;2.92;;;2.00;;
4808;SDS011;2418;49.930;8.606;2022-07-15T04:45:50;3.30;;;2.10;;
4808;SDS011;2418;49.930;8.606;2022-07-15T04:48:16;2.45;;;2.03;;
4808;SDS011;2418;49.930;8.606;2022-07-15T04:51:01;2.50;;;2.30;;
4808;SDS011;2418;49.930;8.606;2022-07-15T04:53:27;2.40;;;2.00;;
4808;SDS011;2418;49.930;8.606;2022-07-15T04:55:53;4.50;;;1.90;;
4808;SDS011;2418;49.930;8.606;2022-07-15T04:58:19;8.23;;;2.50;;
4808;SDS011;2418;49.930;8.606;2022-07-15T05:00:45;2.10;;;2.00;;
4808;SDS011;2418;49.930;8.606;2022-07-15T05:03:11;4.10;;;1.80;;
4808;SDS011;2418;49.930;8.606;2022-07-15T05:05:38;4.47;;;1.90;;
4808;SDS011;2418;49.930;8.606;2022-07-15T05:08:04;7.15;;;2.20;;
4808;SDS011;2418;49.930;8.606;2022-07-15T05:10:31;8.73;;;2.15;;
4808;SDS011;2418;49.930;8.606;2022-07-15T05:12:58;8.60;;;2.53;;
4808;SDS011;2418;49.930;8.606;2022-07-15T05:15:24;6.70;;;2.40;;
4808;SDS011;2418;49.930;8.606;2022-07-15T05:17:50;7.15;;;2.10;;
4808;SDS011;2418;49.930;8.606;2022-07-15T05:20:16;6.43;;;2.10;;
4808;SDS011;2418;49.930;8.606;2022-07-15T05:22:42;3.47;;;1.77;;
4808;SDS011;2418;49.930;8.606;2022-07-15T05:25:08;1.75;;;1.65;;
4808;SDS011;2418;49.930;8.606;2022-07-15T05:27:34;5.07;;;1.80;;
4808;SDS011;2418;49.930;8.606;2022-07-15T05:30:00;2.40;;;1.90;;
4808;SDS011;2418;49.930;8.606;2022-07-15T05:32:27;3.75;;;1.98;;
4808;SDS011;2418;49.930;8.606;2022-07-15T05:34:53;2.15;;;1.65;;
4808;SDS011;2418;49.930;8.606;2022-07-15T05:37:20;3.20;;;2.10;;
4808;SDS011;2418;49.930;8.606;2022-07-15T05:39:46;1.83;;;1.70;;
4808;SDS011;2418;49.930;8.606;2022-07-15T05:42:20;2.72;;;2.20;;
4808;SDS011;2418;49.930;8.606;2022-07-15T05:44:48;17.30;;;1.90;;
4808;SDS011;2418;49.930;8.606;2022-07-15T05:47:15;2.07;;;1.80;;
4808;SDS011;2418;49.930;8.606;2022-07-15T05:49:41;2.13;;;1.92;;
4808;SDS011;2418;49.930;8.606;2022-07-15T05:52:08;4.30;;;1.67;;
4808;SDS011;2418;49.930;8.606;2022-07-15T05:54:34;2.00;;;1.90;;
4808;SDS011;2418;49.930;8.606;2022-07-15T05:57:02;1.73;;;1.50;;
4808;SDS011;2418;49.930;8.606;2022-07-15T05:59:28;7.13;;;1.40;;
4808;SDS011;2418;49.930;8.606;2022-07-15T06:01:54;8.20;;;2.17;;
4808;SDS011;2418;49.930;8.606;2022-07-15T06:04:20;7.38;;;1.73;;
4808;SDS011;2418;49.930;8.606;2022-07-15T06:06:46;2.80;;;1.50;;
4808;SDS011;2418;49.930;8.606;2022-07-15T06:09:12;5.70;;;1.40;;
4808;SDS011;2418;49.930;8.606;2022-07-15T06:11:38;1.60;;;1.50;;
4808;SDS011;2418;49.930;8.606;2022-07-15T06:14:04;7.60;;;1.77;;
4808;SDS011;2418;49.930;8.606;2022-07-15T06:16:30;4.47;;;1.30;;
4808;SDS011;2418;49.930;8.606;2022-07-15T06:18:57;2.80;;;1.25;;
4808;SDS011;2418;49.930;8.606;2022-07-15T06:21:24;1.55;;;1.13;;
4808;SDS011;2418;49.930;8.606;2022-07-15T06:23:50;2.00;;;1.30;;
4808;SDS011;2418;49.930;8.606;2022-07-15T06:26:16;1.58;;;1.08;;
4808;SDS011;2418;49.930;8.606;2022-07-15T06:28:42;1.25;;;1.10;;
4808;SDS011;2418;49.930;8.606;2022-07-15T06:31:08;3.25;;;1.38;;
4808;SDS011;2418;49.930;8.606;2022-07-15T06:33:34;2.00;;;1.30;;
4808;SDS011;2418;49.930;8.606;2022-07-15T06:36:00;3.40;;;1.50;;
4808;SDS011;2418;49.930;8.606;2022-07-15T06:38:26;2.00;;;1.20;;
4808;SDS011;2418;49.930;8.606;2022-07-15T06:40:53;2.87;;;1.30;;
4808;SDS011;2418;49.930;8.606;2022-07-15T06:43:19;2.57;;;1.50;;
4808;SDS011;2418;49.930;8.606;2022-07-15T06:45:45;5.50;;;1.30;;
4808;SDS011;2418;49.930;8.606;2022-07-15T06:48:11;1.40;;;1.30;;
4808;SDS011;2418;49.930;8.606;2022-07-15T06:50:37;3.05;;;1.50;;
4808;SDS011;2418;49.930;8.606;2022-07-15T06:53:03;5.10;;;1.30;;
4808;SDS011;2418;49.930;8.606;2022-07-15T06:55:29;1.30;;;1.20;;
4808;SDS011;2418;49.930;8.606;2022-07-15T06:57:55;6.57;;;1.40;;
4808;SDS011;2418;49.930;8.606;2022-07-15T07:00:21;4.80;;;1.50;;
4808;SDS011;2418;49.930;8.606;2022-07-15T07:02:47;1.92;;;1.70;;
4808;SDS011;2418;49.930;8.606;2022-07-15T07:05:13;2.40;;;1.60;;
4808;SDS011;2418;49.930;8.606;2022-07-15T07:07:38;3.40;;;1.00;;
4808;SDS011;2418;49.930;8.606;2022-07-15T07:10:05;2.00;;;1.20;;
4808;SDS011;2418;49.930;8.606;2022-07-15T07:12:30;2.22;;;1.30;;
4808;SDS011;2418;49.930;8.606;2022-07-15T07:14:56;1.80;;;1.40;;
4808;SDS011;2418;49.930;8.606;2022-07-15T07:17:22;10.98;;;1.50;;
4808;SDS011;2418;49.930;8.606;2022-07-15T07:19:49;7.00;;;2.20;;
4808;SDS011;2418;49.930;8.606;2022-07-15T07:22:15;3.20;;;1.10;;
4808;SDS011;2418;49.930;8.606;2022-07-15T07:24:41;3.33;;;1.25;;
4808;SDS011;2418;49.930;8.606;2022-07-15T07:27:07;3.25;;;1.60;;
4808;SDS011;2418;49.930;8.606;2022-07-15T07:29:33;6.40;;;1.40;;
4808;SDS011;2418;49.930;8.606;2022-07-15T07:31:59;6.30;;;1.60;;
4808;SDS011;2418;49.930;8.606;2022-07-15T07:34:26;3.30;;;1.60;;
4808;SDS011;2418;49.930;8.606;2022-07-15T07:36:52;1.65;;;1.40;;
4808;SDS011;2418;49.930;8.606;2022-07-15T07:39:18;3.35;;;1.25;;
4808;SDS011;2418;49.930;8.606;2022-07-15T07:41:44;1.50;;;1.23;;
4808;SDS011;2418;49.930;8.606;2022-07-15T07:44:09;2.70;;;1.27;;
4808;SDS011;2418;49.930;8.606;2022-07-15T07:46:35;2.63;;;1.33;;
4808;SDS011;2418;49.930;8.606;2022-07-15T07:49:02;7.32;;;1.90;;
4808;SDS011;2418;49.930;8.606;2022-07-15T07:51:28;5.55;;;1.27;;
4808;SDS011;2418;49.930;8.606;2022-07-15T07:53:54;1.40;;;1.30;;
4808;SDS011;2418;49.930;8.606;2022-07-15T07:56:22;2.70;;;1.40;;
4808;SDS011;2418;49.930;8.606;2022-07-15T07:58:49;4.25;;;1.70;;
4808;SDS011;2418;49.930;8.606;2022-07-15T08:01:15;1.30;;;1.20;;
4808;SDS011;2418;49.930;8.606;2022-07-15T08:03:42;3.13;;;1.25;;
4808;SDS011;2418;49.930;8.606;2022-07-15T08:06:09;4.22;;;1.20;;
4808;SDS011;2418;49.930;8.606;2022-07-15T08:08:35;1.58;;;1.30;;
4808;SDS011;2418;49.930;8.606;2022-07-15T08:11:02;5.20;;;1.90;;
4808;SDS011;2418;49.930;8.606;2022-07-15T08:13:28;3.40;;;1.50;;
4808;SDS011;2418;49.930;8.606;2022-07-15T08:15:54;2.15;;;1.50;;
4808;SDS011;2418;49.930;8.606;2022-07-15T08:18:22;1.80;;;1.17;;
4808;SDS011;2418;49.930;8.606;2022-07-15T08:20:48;3.78;;;1.67;;
4808;SDS011;2418;49.930;8.606;2022-07-15T08:23:14;3.40;;;1.60;;
4808;SDS011;2418;49.930;8.606;2022-07-15T08:25:45;3.60;;;1.90;;
4808;SDS011;2418;49.930;8.606;2022-07-15T08:28:12;6.10;;;2.05;;
4808;SDS011;2418;49.930;8.606;2022-07-15T08:30:37;3.00;;;1.60;;
4808;SDS011;2418;49.930;8.606;2022-07-15T08:33:03;4.63;;;1.83;;
4808;SDS011;2418;49.930;8.606;2022-07-15T08:35:30;1.60;;;1.50;;
4808;SDS011;2418;49.930;8.606;2022-07-15T08:37:56;2.55;;;1.70;;
4808;SDS011;2418;49.930;8.606;2022-07-15T08:40:22;5.13;;;2.10;;
4808;SDS011;2418;49.930;8.606;2022-07-15T08:42:49;2.10;;;1.65;;
4808;SDS011;2418;49.930;8.606;2022-07-15T08:45:16;3.58;;;1.92;;
4808;SDS011;2418;49.930;8.606;2022-07-15T08:47:43;2.30;;;1.35;;
4808;SDS011;2418;49.930;8.606;2022-07-15T08:50:09;2.40;;;2.15;;
4808;SDS011;2418;49.930;8.606;2022-07-15T08:52:39;6.63;;;1.52;;
4808;SDS011;2418;49.930;8.606;2022-07-15T08:55:06;5.80;;;1.83;;
4808;SDS011;2418;49.930;8.606;2022-07-15T08:57:32;3.90;;;1.58;;
4808;SDS011;2418;49.930;8.606;2022-07-15T08:59:58;4.05;;;1.70;;
4808;SDS011;2418;49.930;8.606;2022-07-15T09:02:24;5.20;;;2.30;;
4808;SDS011;2418;49.930;8.606;2022-07-15T09:10:21;5.00;;;1.80;;
4808;SDS011;2418;49.930;8.606;2022-07-15T09:12:51;4.80;;;1.80;;
4808;SDS011;2418;49.930;8.606;2022-07-15T09:15:31;4.65;;;1.95;;
4808;SDS011;2418;49.930;8.606;2022-07-15T09:20:33;7.70;;;2.05;;
4808;SDS011;2418;49.930;8.606;2022-07-15T09:23:00;5.35;;;2.10;;
4808;SDS011;2418;49.930;8.606;2022-07-15T09:25:27;4.00;;;2.10;;
4808;SDS011;2418;49.930;8.606;2022-07-15T09:27:53;2.80;;;1.73;;
4808;SDS011;2418;49.930;8.606;2022-07-15T09:30:21;6.97;;;2.83;;
4808;SDS011;2418;49.930;8.606;2022-07-15T09:33:09;2.00;;;1.70;;
4808;SDS011;2418;49.930;8.606;2022-07-15T09:36:01;3.90;;;2.50;;
4808;SDS011;2418;49.930;8.606;2022-07-15T09:38:29;3.25;;;2.40;;
4808;SDS011;2418;49.930;8.606;2022-07-15T09:40:55;2.60;;;2.10;;
4808;SDS011;2418;49.930;8.606;2022-07-15T09:43:21;2.40;;;2.20;;
4808;SDS011;2418;49.930;8.606;2022-07-15T09:45:48;8.75;;;2.10;;
4808;SDS011;2418;49.930;8.606;2022-07-15T09:48:21;4.57;;;2.03;;
4808;SDS011;2418;49.930;8.606;2022-07-15T09:50:49;4.68;;;2.25;;
4808;SDS011;2418;49.930;8.606;2022-07-15T09:53:15;2.37;;;2.13;;
4808;SDS011;2418;49.930;8.606;2022-07-15T09:55:41;2.22;;;2.13;;
4808;SDS011;2418;49.930;8.606;2022-07-15T09:58:08;2.28;;;2.08;;
4808;SDS011;2418;49.930;8.606;2022-07-15T10:00:34;3.35;;;2.20;;
4808;SDS011;2418;49.930;8.606;2022-07-15T10:03:01;4.90;;;2.50;;
4808;SDS011;2418;49.930;8.606;2022-07-15T10:05:27;5.72;;;2.22;;
4808;SDS011;2418;49.930;8.606;2022-07-15T10:07:55;4.18;;;2.42;;
4808;SDS011;2418;49.930;8.606;2022-07-15T10:10:23;4.05;;;2.60;;
4808;SDS011;2418;49.930;8.606;2022-07-15T10:23:42;4.25;;;2.75;;
4808;SDS011;2418;49.930;8.606;2022-07-15T10:28:49;4.82;;;2.60;;
4808;SDS011;2418;49.930;8.606;2022-07-15T10:33:42;2.80;;;2.50;;
4808;SDS011;2418;49.930;8.606;2022-07-15T10:36:08;3.50;;;3.20;;
4808;SDS011;2418;49.930;8.606;2022-07-15T10:38:35;2.70;;;2.50;;
4808;SDS011;2418;49.930;8.606;2022-07-15T10:43:40;4.60;;;2.80;;
4808;SDS011;2418;49.930;8.606;2022-07-15T10:48:42;3.00;;;2.70;;
4808;SDS011;2418;49.930;8.606;2022-07-15T10:51:09;5.50;;;2.60;;
4808;SDS011;2418;49.930;8.606;2022-07-15T10:53:45;3.22;;;2.55;;
4808;SDS011;2418;49.930;8.606;2022-07-15T10:56:27;3.30;;;3.10;;
4808;SDS011;2418;49.930;8.606;2022-07-15T11:01:36;3.33;;;3.13;;
4808;SDS011;2418;49.930;8.606;2022-07-15T11:12:07;2.95;;;2.75;;
4808;SDS011;2418;49.930;8.606;2022-07-15T11:17:19;4.95;;;3.50;;
4808;SDS011;2418;49.930;8.606;2022-07-15T11:19:46;3.80;;;3.40;;
4808;SDS011;2418;49.930;8.606;2022-07-15T11:22:15;3.03;;;2.83;;
4808;SDS011;2418;49.930;8.606;2022-07-15T11:24:42;3.33;;;3.00;;
4808;SDS011;2418;49.930;8.606;2022-07-15T11:27:08;3.13;;;2.92;;
4808;SDS011;2418;49.930;8.606;2022-07-15T11:29:45;3.30;;;3.10;;
4808;SDS011;2418;49.930;8.606;2022-07-15T11:32:12;3.40;;;3.10;;
4808;SDS011;2418;49.930;8.606;2022-07-15T11:34:44;4.03;;;3.00;;
4808;SDS011;2418;49.930;8.606;2022-07-15T11:37:11;4.38;;;2.80;;
4808;SDS011;2418;49.930;8.606;2022-07-15T11:39:43;3.15;;;2.90;;
4808;SDS011;2418;49.930;8.606;2022-07-15T11:42:16;3.45;;;3.00;;
4808;SDS011;2418;49.930;8.606;2022-07-15T11:45:02;4.82;;;2.70;;
4808;SDS011;2418;49.930;8.606;2022-07-15T11:47:28;3.60;;;2.80;;
4808;SDS011;2418;49.930;8.606;2022-07-15T11:49:58;6.50;;;2.75;;
4808;SDS011;2418;49.930;8.606;2022-07-15T11:52:24;3.00;;;2.70;;
4808;SDS011;2418;49.930;8.606;2022-07-15T11:54:51;2.75;;;2.08;;
4808;SDS011;2418;49.930;8.606;2022-07-15T11:57:17;2.50;;;2.40;;
4808;SDS011;2418;49.930;8.606;2022-07-15T11:59:53;3.67;;;2.63;;
4808;SDS011;2418;49.930;8.606;2022-07-15T12:02:19;2.50;;;2.30;;
4808;SDS011;2418;49.930;8.606;2022-07-15T12:04:48;3.10;;;2.60;;
4808;SDS011;2418;49.930;8.606;2022-07-15T12:07:14;5.27;;;2.60;;
4808;SDS011;2418;49.930;8.606;2022-07-15T12:09:45;7.45;;;3.08;;
4808;SDS011;2418;49.930;8.606;2022-07-15T12:12:11;5.15;;;2.75;;
4808;SDS011;2418;49.930;8.606;2022-07-15T12:14:37;6.50;;;2.47;;
4808;SDS011;2418;49.930;8.606;2022-07-15T12:17:03;2.83;;;2.63;;
4808;SDS011;2418;49.930;8.606;2022-07-15T12:19:30;2.60;;;2.40;;
4808;SDS011;2418;49.930;8.606;2022-07-15T12:21:58;7.70;;;3.08;;
4808;SDS011;2418;49.930;8.606;2022-07-15T12:24:58;3.47;;;2.10;;
4808;SDS011;2418;49.930;8.606;2022-07-15T12:27:17;3.03;;;2.90;;
4808;SDS011;2418;49.930;8.606;2022-07-15T12:30:06;2.70;;;2.55;;
4808;SDS011;2418;49.930;8.606;2022-07-15T12:32:32;4.38;;;2.13;;
4808;SDS011;2418;49.930;8.606;2022-07-15T12:34:58;2.90;;;2.60;;
4808;SDS011;2418;49.930;8.606;2022-07-15T12:37:26;3.92;;;2.10;;
4808;SDS011;2418;49.930;8.606;2022-07-15T12:40:22;3.50;;;2.35;;
4808;SDS011;2418;49.930;8.606;2022-07-15T12:42:51;6.35;;;2.20;;
4808;SDS011;2418;49.930;8.606;2022-07-15T12:50:25;3.33;;;2.42;;
4808;SDS011;2418;49.930;8.606;2022-07-15T12:52:54;2.10;;;2.00;;
4808;SDS011;2418;49.930;8.606;2022-07-15T12:55:22;2.80;;;2.70;;
4808;SDS011;2418;49.930;8.606;2022-07-15T12:57:48;6.45;;;2.33;;
4808;SDS011;2418;49.930;8.606;2022-07-15T13:05:26;2.60;;;2.40;;
4808;SDS011;2418;49.930;8.606;2022-07-15T13:07:52;3.70;;;2.20;;
4808;SDS011;2418;49.930;8.606;2022-07-15T13:10:18;2.35;;;2.15;;
4808;SDS011;2418;49.930;8.606;2022-07-15T13:12:50;2.28;;;2.17;;
4808;SDS011;2418;49.930;8.606;2022-07-15T13:15:16;4.20;;;2.40;;
4808;SDS011;2418;49.930;8.606;2022-07-15T13:17:42;3.90;;;2.70;;
4808;SDS011;2418;49.930;8.606;2022-07-15T13:20:08;5.13;;;2.53;;
4808;SDS011;2418;49.930;8.606;2022-07-15T13:22:34;1.92;;;1.83;;
4808;SDS011;2418;49.930;8.606;2022-07-15T13:25:02;2.85;;;1.90;;
4808;SDS011;2418;49.930;8.606;2022-07-15T13:27:28;3.42;;;2.20;;
4808;SDS011;2418;49.930;8.606;2022-07-15T13:29:54;2.28;;;2.00;;
4808;SDS011;2418;49.930;8.606;2022-07-15T13:32:20;2.10;;;1.90;;
4808;SDS011;2418;49.930;8.606;2022-07-15T13:34:45;3.87;;;2.10;;
4808;SDS011;2418;49.930;8.606;2022-07-15T13:37:11;4.40;;;2.45;;
4808;SDS011;2418;49.930;8.606;2022-07-15T13:39:37;2.42;;;2.30;;
4808;SDS011;2418;49.930;8.606;2022-07-15T13:42:03;3.40;;;2.20;;
4808;SDS011;2418;49.930;8.606;2022-07-15T13:44:29;4.60;;;2.00;;
4808;SDS011;2418;49.930;8.606;2022-07-15T13:46:55;2.90;;;2.70;;
4808;SDS011;2418;49.930;8.606;2022-07-15T13:49:21;2.22;;;2.13;;
4808;SDS011;2418;49.930;8.606;2022-07-15T13:52:07;2.80;;;2.50;;
4808;SDS011;2418;49.930;8.606;2022-07-15T13:54:33;2.63;;;2.15;;
4808;SDS011;2418;49.930;8.606;2022-07-15T13:57:00;2.33;;;2.22;;
4808;SDS011;2418;49.930;8.606;2022-07-15T13:59:27;2.45;;;2.20;;
4808;SDS011;2418;49.930;8.606;2022-07-15T14:01:53;3.23;;;2.40;;
4808;SDS011;2418;49.930;8.606;2022-07-15T14:04:19;3.80;;;2.50;;
4808;SDS011;2418;49.930;8.606;2022-07-15T14:06:45;2.42;;;2.22;;
4808;SDS011;2418;49.930;8.606;2022-07-15T14:09:11;4.28;;;2.38;;
4808;SDS011;2418;49.930;8.606;2022-07-15T14:11:37;3.30;;;2.05;;
4808;SDS011;2418;49.930;8.606;2022-07-15T14:14:03;2.65;;;2.45;;
4808;SDS011;2418;49.930;8.606;2022-07-15T14:16:29;2.40;;;2.30;;
4808;SDS011;2418;49.930;8.606;2022-07-15T14:18:55;5.10;;;2.70;;
4808;SDS011;2418;49.930;8.606;2022-07-15T14:21:21;2.40;;;2.30;;
4808;SDS011;2418;49.930;8.606;2022-07-15T14:23:47;2.50;;;2.20;;
4808;SDS011;2418;49.930;8.606;2022-07-15T14:26:15;2.80;;;2.20;;
4808;SDS011;2418;49.930;8.606;2022-07-15T14:28:41;2.70;;;2.60;;
4808;SDS011;2418;49.930;8.606;2022-07-15T14:31:08;1.95;;;1.90;;
4808;SDS011;2418;49.930;8.606;2022-07-15T14:33:37;2.40;;;2.30;;
4808;SDS011;2418;49.930;8.606;2022-07-15T14:36:09;2.20;;;2.10;;
4808;SDS011;2418;49.930;8.606;2022-07-15T14:38:36;2.40;;;2.30;;
4808;SDS011;2418;49.930;8.606;2022-07-15T14:41:03;3.10;;;2.10;;
4808;SDS011;2418;49.930;8.606;2022-07-15T14:43:29;2.60;;;2.50;;
4808;SDS011;2418;49.930;8.606;2022-07-15T14:45:55;2.10;;;2.00;;
4808;SDS011;2418;49.930;8.606;2022-07-15T14:48:21;2.50;;;2.22;;
4808;SDS011;2418;49.930;8.606;2022-07-15T14:50:48;2.10;;;2.10;;
4808;SDS011;2418;49.930;8.606;2022-07-15T14:53:14;2.65;;;2.45;;
4808;SDS011;2418;49.930;8.606;2022-07-15T14:55:40;2.15;;;2.05;;
4808;SDS011;2418;49.930;8.606;2022-07-15T14:58:06;6.45;;;2.10;;
4808;SDS011;2418;49.930;8.606;2022-07-15T15:00:33;2.05;;;1.95;;
4808;SDS011;2418;49.930;8.606;2022-07-15T15:02:59;1.90;;;1.80;;
4808;SDS011;2418;49.930;8.606;2022-07-15T15:05:25;2.35;;;1.90;;
4808;SDS011;2418;49.930;8.606;2022-07-15T15:07:51;2.47;;;2.28;;
4808;SDS011;2418;49.930;8.606;2022-07-15T15:10:18;3.27;;;1.97;;
4808;SDS011;2418;49.930;8.606;2022-07-15T15:12:44;2.70;;;1.90;;
4808;SDS011;2418;49.930;8.606;2022-07-15T15:15:10;1.83;;;1.73;;
4808;SDS011;2418;49.930;8.606;2022-07-15T15:17:36;6.50;;;2.25;;
4808;SDS011;2418;49.930;8.606;2022-07-15T15:20:02;5.90;;;2.20;;
4808;SDS011;2418;49.930;8.606;2022-07-15T15:22:31;1.88;;;1.70;;
4808;SDS011;2418;49.930;8.606;2022-07-15T15:24:57;2.05;;;1.75;;
4808;SDS011;2418;49.930;8.606;2022-07-15T15:27:23;1.88;;;1.77;;
4808;SDS011;2418;49.930;8.606;2022-07-15T15:29:49;1.50;;;1.40;;
4808;SDS011;2418;49.930;8.606;2022-07-15T15:32:15;5.63;;;1.40;;
4808;SDS011;2418;49.930;8.606;2022-07-15T15:34:41;2.10;;;1.40;;
4808;SDS011;2418;49.930;8.606;2022-07-15T15:37:08;3.67;;;1.40;;
4808;SDS011;2418;49.930;8.606;2022-07-15T15:39:33;1.40;;;1.30;;
4808;SDS011;2418;49.930;8.606;2022-07-15T15:42:00;1.20;;;1.10;;
4808;SDS011;2418;49.930;8.606;2022-07-15T15:44:26;1.33;;;1.17;;
4808;SDS011;2418;49.930;8.606;2022-07-15T15:46:52;2.50;;;1.17;;
4808;SDS011;2418;49.930;8.606;2022-07-15T15:49:18;2.58;;;1.17;;
4808;SDS011;2418;49.930;8.606;2022-07-15T15:51:47;4.40;;;1.30;;
4808;SDS011;2418;49.930;8.606;2022-07-15T15:54:14;1.20;;;1.15;;
4808;SDS011;2418;49.930;8.606;2022-07-15T15:56:40;37.53;;;4.10;;
4808;SDS011;2418;49.930;8.606;2022-07-15T15:59:06;9.60;;;1.70;;
4808;SDS011;2418;49.930;8.606;2022-07-15T16:01:35;8.70;;;1.40;;
4808;SDS011;2418;49.930;8.606;2022-07-15T16:04:05;3.90;;;1.57;;
4808;SDS011;2418;49.930;8.606;2022-07-15T16:06:31;2.67;;;1.20;;